This is the latest recevied weather packets stored in our database for station/object SQ7IQO. If no packets are shown the sender has not sent any weather packets the latest 10 day(s).
| Time | Temp. | Humidity | Pressure | Rain* | Wind** | Luminosity | Snow |
|---|---|---|---|---|---|---|---|
| 1788014502 | 24.44° C | 58% | - | 0 mm | 0.89 m/s, ° | - | - |
| 1788014442 | 24.44° C | 58% | 1015.5 hPa | 0 mm | 0.89 m/s, ° | - | - |
| 1788014382 | 23.89° C | 60% | 1015.5 hPa | 0 mm | 0.89 m/s, ° | - | - |
| 1788014322 | 23.89° C | 61% | - | 0 mm | 0.89 m/s, ° | - | - |
| 1788014262 | 23.33° C | 63% | 1029.8 hPa | 0 mm | 0.89 m/s, ° | - | - |
| 1788014202 | 22.78° C | 62% | 1015.5 hPa | 0 mm | 0.89 m/s, ° | - | - |
| 1788014142 | 23.33° C | 62% | 1015.9 hPa | 0 mm | 1.79 m/s, ° | - | - |
| 1788014082 | 22.78° C | 63% | 1015.5 hPa | 0 mm | 0.45 m/s, ° | - | - |
| 1788014022 | 22.22° C | 64% | 1015.6 hPa | 0 mm | 0.45 m/s, ° | - | - |
| 1788013962 | 22.78° C | 65% | 1015.5 hPa | 0 mm | 1.34 m/s, ° | - | - |
| 1788013902 | 22.22° C | 65% | 1015.5 hPa | 0 mm | 0.45 m/s, ° | - | - |
| 1788013842 | 22.22° C | 66% | 1022.8 hPa | 0 mm | 1.34 m/s, ° | - | - |
| 1788013782 | 22.22° C | 66% | 1015.6 hPa | 0 mm | 0.89 m/s, ° | - | - |
| 1788013722 | 22.22° C | 65% | 1015.6 hPa | 0 mm | 1.34 m/s, ° | - | - |
| 1788013662 | 22.22° C | 64% | 1015.6 hPa | 0 mm | 0.89 m/s, ° | - | - |
| 1788013602 | 22.22° C | 64% | 1014.3 hPa | 0 mm | 1.34 m/s, ° | - | - |
| 1788013542 | 22.22° C | 65% | 1015.6 hPa | 0 mm | 1.79 m/s, ° | - | - |
| 1788013482 | 21.67° C | 66% | 1015.6 hPa | 0 mm | 2.68 m/s, ° | - | - |
| 1788013422 | 21.67° C | 67% | 1015.6 hPa | 0 mm | 1.34 m/s, ° | - | - |
| 1788013362 | 21.67° C | 66% | 1015.6 hPa | 0 mm | 1.79 m/s, ° | - | - |
| 1788013302 | 21.67° C | 65% | 1010.2 hPa | 0 mm | 2.24 m/s, ° | - | - |
| 1788013242 | 21.67° C | 65% | 1015.6 hPa | 0 mm | 2.24 m/s, ° | - | - |
| 1788013182 | 22.22° C | 65% | 1015.5 hPa | 0 mm | 2.68 m/s, ° | - | - |
| 1788013121 | 22.22° C | 65% | 1015.6 hPa | 0 mm | 2.24 m/s, ° | - | - |
| 1788013062 | 22.78° C | 63% | 1015.5 hPa | 0 mm | 1.79 m/s, ° | - | - |
* Rain latest hour (hover to see other rain measurements)
** Current wind speed in m/s (hover to see current wind gust speed)